createdAt,value
2018-12-09T00:00:58.796Z,1.93
2018-12-09T00:03:26.201Z,2.53
2018-12-09T00:05:53.644Z,2.03
2018-12-09T00:08:21.032Z,2.20
2018-12-09T00:10:48.541Z,2.43
2018-12-09T00:13:15.950Z,2.23
2018-12-09T00:15:43.592Z,2.03
2018-12-09T00:18:11.017Z,2.30
2018-12-09T00:20:38.572Z,2.13
2018-12-09T00:23:06.153Z,1.80
2018-12-09T00:25:33.568Z,1.93
2018-12-09T00:28:00.987Z,2.40
2018-12-09T00:30:28.372Z,1.90
2018-12-09T00:32:55.899Z,2.03
2018-12-09T00:35:23.315Z,2.43
2018-12-09T00:37:50.740Z,2.37
2018-12-09T00:40:18.158Z,2.30
2018-12-09T00:42:45.612Z,2.30
2018-12-09T00:45:13.117Z,3.00
2018-12-09T00:47:40.544Z,2.40
2018-12-09T00:50:07.964Z,2.30
2018-12-09T00:52:35.375Z,2.80
2018-12-09T00:55:03.016Z,2.43
2018-12-09T00:57:30.472Z,2.90
2018-12-09T00:59:57.889Z,3.20
2018-12-09T01:02:25.348Z,2.50
2018-12-09T01:04:52.744Z,2.50
2018-12-09T01:07:20.175Z,2.53
2018-12-09T01:09:47.840Z,2.70
2018-12-09T01:12:15.315Z,2.60
2018-12-09T01:14:42.730Z,2.83
2018-12-09T01:17:10.190Z,3.20
2018-12-09T01:19:37.705Z,3.90
2018-12-09T01:22:05.275Z,2.60
2018-12-09T01:24:32.684Z,2.23
2018-12-09T01:27:00.139Z,2.10
2018-12-09T01:29:27.549Z,2.30
2018-12-09T01:31:55.016Z,1.77
2018-12-09T01:34:22.413Z,1.70
2018-12-09T01:36:49.848Z,1.93
2018-12-09T01:39:17.257Z,1.40
2018-12-09T01:41:44.697Z,1.30
2018-12-09T01:44:12.236Z,1.40
2018-12-09T01:46:39.651Z,1.33
2018-12-09T01:49:07.056Z,1.27
2018-12-09T01:51:34.507Z,1.07
2018-12-09T01:54:13.772Z,0.83
2018-12-09T01:56:41.386Z,0.90
2018-12-09T01:59:08.909Z,0.90
2018-12-09T02:01:36.443Z,0.80
2018-12-09T02:04:04.232Z,0.70
2018-12-09T02:06:32.115Z,0.70
2018-12-09T02:08:59.616Z,0.70
2018-12-09T02:11:27.375Z,0.70
2018-12-09T02:13:54.937Z,0.93
2018-12-09T02:16:22.625Z,0.80
2018-12-09T02:19:00.323Z,0.80
2018-12-09T02:21:27.759Z,0.93
2018-12-09T02:23:55.192Z,1.13
2018-12-09T02:26:22.595Z,1.37
2018-12-09T02:28:50.022Z,1.13
2018-12-09T02:31:17.461Z,1.70
2018-12-09T02:33:44.893Z,1.60
2018-12-09T02:36:12.322Z,1.30
2018-12-09T02:38:39.748Z,1.50
2018-12-09T02:41:07.184Z,1.80
2018-12-09T02:43:34.690Z,2.27
2018-12-09T02:46:02.221Z,1.73
2018-12-09T02:48:29.670Z,1.70
2018-12-09T02:50:57.081Z,2.07
2018-12-09T02:53:24.607Z,1.70
2018-12-09T02:55:52.033Z,2.47
2018-12-09T02:58:19.580Z,2.13
2018-12-09T03:00:47.213Z,1.90
2018-12-09T03:03:15.087Z,2.17
2018-12-09T03:05:42.497Z,1.90
2018-12-09T03:08:10.048Z,1.83
2018-12-09T03:10:37.539Z,2.40
2018-12-09T03:13:04.949Z,2.00
2018-12-09T03:15:32.779Z,1.60
2018-12-09T03:18:00.200Z,2.27
2018-12-09T03:20:27.860Z,2.17
2018-12-09T03:22:55.322Z,2.50
2018-12-09T03:25:22.772Z,2.40
2018-12-09T03:27:50.626Z,2.30
2018-12-09T03:30:18.072Z,2.30
2018-12-09T03:32:45.522Z,2.43
2018-12-09T03:35:13.202Z,1.97
2018-12-09T03:37:40.623Z,2.30
2018-12-09T03:40:08.576Z,2.10
2018-12-09T03:42:36.070Z,1.30
2018-12-09T03:45:03.757Z,1.20
2018-12-09T03:47:31.223Z,1.30
2018-12-09T03:49:58.765Z,0.80
2018-12-09T03:52:26.527Z,1.03
2018-12-09T03:54:53.997Z,0.67
2018-12-09T03:57:21.437Z,0.80
2018-12-09T03:59:48.858Z,0.87
2018-12-09T04:02:16.264Z,0.97
2018-12-09T04:04:44.137Z,0.93
2018-12-09T04:07:11.694Z,0.87
2018-12-09T04:09:39.151Z,1.23
2018-12-09T04:12:06.572Z,0.70
2018-12-09T04:14:34.042Z,0.67
2018-12-09T04:17:01.975Z,0.80
2018-12-09T04:19:29.505Z,0.87
2018-12-09T04:21:56.932Z,0.80
2018-12-09T04:24:24.405Z,1.07
2018-12-09T04:26:51.818Z,1.20
2018-12-09T04:29:19.676Z,1.40
2018-12-09T04:31:47.090Z,1.70
2018-12-09T04:34:15.255Z,1.70
2018-12-09T04:36:42.695Z,2.20
2018-12-09T04:39:10.121Z,1.70
2018-12-09T04:41:38.018Z,1.50
2018-12-09T04:44:05.511Z,1.47
2018-12-09T04:46:32.935Z,0.97
2018-12-09T04:49:00.366Z,0.77
2018-12-09T04:52:04.402Z,0.80
2018-12-09T04:54:31.869Z,0.77
2018-12-09T04:56:59.370Z,0.70
2018-12-09T04:59:28.955Z,0.90
2018-12-09T05:01:56.365Z,0.70
2018-12-09T05:04:23.776Z,0.67
2018-12-09T05:06:51.298Z,1.13
2018-12-09T05:09:18.757Z,0.87
2018-12-09T05:11:46.669Z,0.87
2018-12-09T05:14:14.091Z,1.00
2018-12-09T05:16:41.505Z,0.80
2018-12-09T05:19:08.933Z,0.93
2018-12-09T05:21:36.349Z,1.27
2018-12-09T05:24:03.909Z,1.00
2018-12-09T05:26:31.316Z,1.00
2018-12-09T05:28:58.771Z,0.97
2018-12-09T05:31:26.197Z,1.27
2018-12-09T05:33:53.824Z,1.63
2018-12-09T05:36:21.236Z,1.63
2018-12-09T05:38:48.671Z,0.90
2018-12-09T05:41:16.096Z,1.30
2018-12-09T05:43:43.546Z,1.20
2018-12-09T05:46:10.947Z,0.93
2018-12-09T05:48:38.481Z,0.97
2018-12-09T05:51:05.936Z,0.70
2018-12-09T05:53:33.414Z,0.80
2018-12-09T05:56:00.950Z,0.90
2018-12-09T05:58:29.555Z,0.77
2018-12-09T06:00:56.971Z,1.00
2018-12-09T06:03:24.420Z,0.73
2018-12-09T06:05:51.834Z,0.77
2018-12-09T06:08:19.488Z,0.70
2018-12-09T06:10:46.949Z,0.40
2018-12-09T06:13:14.387Z,0.30
2018-12-09T06:15:42.149Z,0.40
2018-12-09T06:18:09.592Z,0.30
2018-12-09T06:20:37.039Z,0.20
2018-12-09T06:23:04.452Z,0.20
2018-12-09T06:25:31.895Z,0.27
2018-12-09T06:27:59.738Z,0.40
2018-12-09T06:30:27.308Z,0.30
2018-12-09T06:32:54.707Z,0.30
2018-12-09T06:35:22.137Z,0.23
2018-12-09T06:37:49.592Z,0.30
2018-12-09T06:40:17.150Z,0.30
2018-12-09T06:42:44.713Z,0.20
2018-12-09T06:45:12.274Z,0.30
2018-12-09T06:47:39.703Z,0.30
2018-12-09T06:50:09.384Z,0.30
2018-12-09T06:52:36.794Z,0.20
2018-12-09T06:55:05.220Z,0.30
2018-12-09T06:57:32.738Z,0.40
2018-12-09T07:00:00.187Z,0.30
2018-12-09T07:02:27.591Z,0.40
2018-12-09T07:04:55.031Z,0.40
2018-12-09T07:07:22.795Z,0.40
2018-12-09T07:09:50.220Z,0.57
2018-12-09T07:12:17.629Z,0.50
2018-12-09T07:14:45.049Z,0.40
2018-12-09T07:17:12.481Z,0.53
2018-12-09T07:19:40.323Z,0.60
2018-12-09T07:22:07.896Z,0.70
2018-12-09T07:24:35.357Z,0.60
2018-12-09T07:27:02.763Z,0.90
2018-12-09T07:29:30.228Z,1.03
2018-12-09T07:31:57.747Z,1.00
2018-12-09T07:34:25.289Z,1.10
2018-12-09T07:36:52.704Z,1.50
2018-12-09T07:39:20.140Z,1.60
2018-12-09T07:41:47.579Z,1.60
2018-12-09T07:44:15.112Z,1.90
2018-12-09T07:46:42.905Z,1.80
2018-12-09T07:49:10.419Z,2.00
2018-12-09T07:51:37.998Z,2.27
2018-12-09T07:54:05.508Z,2.53
2018-12-09T07:56:32.958Z,2.13
2018-12-09T07:59:00.396Z,2.20
2018-12-09T08:01:27.836Z,2.13
2018-12-09T08:03:55.244Z,1.77
2018-12-09T08:06:22.700Z,1.63
2018-12-09T08:08:50.164Z,1.40
2018-12-09T08:11:17.576Z,1.63
2018-12-09T08:13:45.105Z,1.57
2018-12-09T08:16:12.640Z,1.37
2018-12-09T08:18:40.048Z,1.70
2018-12-09T08:21:09.126Z,1.73
2018-12-09T08:23:36.728Z,1.63
2018-12-09T08:26:04.174Z,1.23
2018-12-09T08:28:31.572Z,0.90
2018-12-09T08:30:59.031Z,1.43
2018-12-09T08:33:26.428Z,1.00
2018-12-09T08:35:53.867Z,0.80
2018-12-09T08:38:21.285Z,0.93
2018-12-09T08:40:48.712Z,1.00
2018-12-09T08:43:16.239Z,1.10
2018-12-09T08:45:43.690Z,1.70
2018-12-09T08:48:11.099Z,1.27
2018-12-09T08:50:38.564Z,1.20
2018-12-09T08:53:05.983Z,1.43
2018-12-09T08:55:33.532Z,1.30
2018-12-09T08:58:00.937Z,2.27
2018-12-09T09:00:28.369Z,2.00
2018-12-09T09:02:55.804Z,1.87
2018-12-09T09:05:23.232Z,1.70
2018-12-09T09:07:50.625Z,1.70
2018-12-09T09:10:18.053Z,1.70
2018-12-09T09:12:45.481Z,1.90
2018-12-09T09:15:13.081Z,1.93
2018-12-09T09:17:40.557Z,1.73
2018-12-09T09:20:08.198Z,1.90
2018-12-09T09:22:36.451Z,1.63
2018-12-09T09:25:04.235Z,2.13
2018-12-09T09:27:31.749Z,2.27
2018-12-09T09:29:59.172Z,2.03
2018-12-09T09:32:26.640Z,2.00
2018-12-09T09:34:54.075Z,2.10
2018-12-09T09:37:21.511Z,2.00
2018-12-09T09:39:49.006Z,2.20
2018-12-09T09:42:16.428Z,2.07
2018-12-09T09:44:43.842Z,2.40
2018-12-09T09:47:11.289Z,2.40
2018-12-09T09:49:38.747Z,3.00
2018-12-09T09:52:06.216Z,2.20
2018-12-09T09:54:33.619Z,2.07
2018-12-09T09:57:01.051Z,2.90
2018-12-09T09:59:28.436Z,2.27
2018-12-09T10:01:55.945Z,2.30
2018-12-09T10:04:23.395Z,2.53
2018-12-09T10:06:50.795Z,2.63
2018-12-09T10:09:18.254Z,2.60
2018-12-09T10:11:45.660Z,2.17
2018-12-09T10:14:13.045Z,1.87
2018-12-09T10:16:40.552Z,1.97
2018-12-09T10:19:07.939Z,1.83
2018-12-09T10:21:35.355Z,1.97
2018-12-09T10:24:03.018Z,2.23
2018-12-09T10:26:36.425Z,1.77
2018-12-09T10:28:59.865Z,2.30
2018-12-09T10:31:27.403Z,1.83
2018-12-09T10:33:54.783Z,2.23
2018-12-09T10:36:22.422Z,2.43
2018-12-09T10:38:49.880Z,1.90
2018-12-09T10:41:17.412Z,2.70
2018-12-09T10:43:44.788Z,2.10
2018-12-09T10:46:12.336Z,2.93
2018-12-09T10:48:39.736Z,2.70
2018-12-09T10:51:07.156Z,2.47
2018-12-09T10:53:34.633Z,2.80
2018-12-09T10:56:02.074Z,2.40
2018-12-09T10:58:29.500Z,2.27
2018-12-09T11:01:02.486Z,2.70
2018-12-09T11:03:29.913Z,2.93
2018-12-09T11:05:57.325Z,2.80
2018-12-09T11:08:24.731Z,3.20
2018-12-09T11:10:52.146Z,2.83
2018-12-09T11:13:19.677Z,3.57
2018-12-09T11:15:47.064Z,3.27
2018-12-09T11:18:14.612Z,3.03
2018-12-09T11:20:42.002Z,2.70
2018-12-09T11:23:09.540Z,3.10
2018-12-09T11:25:36.931Z,3.30
2018-12-09T11:28:04.346Z,2.67
2018-12-09T11:30:31.724Z,3.07
2018-12-09T11:32:59.256Z,2.90
2018-12-09T11:35:26.680Z,3.23
2018-12-09T11:37:54.073Z,2.87
2018-12-09T11:40:21.472Z,2.20
2018-12-09T11:42:48.879Z,2.37
2018-12-09T11:45:16.262Z,2.00
2018-12-09T11:47:43.748Z,2.30
2018-12-09T11:50:11.137Z,2.10
2018-12-09T11:52:38.713Z,1.70
2018-12-09T11:55:06.256Z,1.60
2018-12-09T11:57:33.699Z,2.20
2018-12-09T12:00:01.112Z,1.37
2018-12-09T12:02:35.383Z,2.17
2018-12-09T12:05:02.906Z,2.20
2018-12-09T12:07:30.348Z,1.77
2018-12-09T12:09:57.830Z,1.50
2018-12-09T12:12:25.316Z,1.80
2018-12-09T12:14:52.691Z,1.03
2018-12-09T12:17:20.140Z,1.30
2018-12-09T12:19:47.529Z,1.43
2018-12-09T12:22:15.003Z,1.00
2018-12-09T12:24:42.401Z,0.97
2018-12-09T12:27:09.848Z,1.10
2018-12-09T12:29:37.273Z,1.10
2018-12-09T12:32:04.747Z,1.23
2018-12-09T12:34:32.172Z,0.80
2018-12-09T12:36:59.653Z,0.90
2018-12-09T12:39:27.205Z,1.00
2018-12-09T12:41:54.662Z,0.90
2018-12-09T12:44:22.077Z,0.87
2018-12-09T12:46:49.508Z,1.30
2018-12-09T12:49:17.237Z,1.53
2018-12-09T12:51:44.699Z,1.27
2018-12-09T12:54:12.366Z,1.17
2018-12-09T12:56:39.812Z,1.40
2018-12-09T12:59:07.219Z,1.00
2018-12-09T13:01:34.652Z,1.30
2018-12-09T13:04:02.092Z,0.90
2018-12-09T13:06:29.632Z,1.00
2018-12-09T13:08:57.141Z,1.10
2018-12-09T13:11:24.559Z,1.30
2018-12-09T13:13:52.097Z,1.00
2018-12-09T13:16:19.587Z,1.67
2018-12-09T13:18:47.063Z,1.30
2018-12-09T13:21:14.644Z,1.30
2018-12-09T13:23:42.072Z,1.37
2018-12-09T13:26:09.589Z,1.20
2018-12-09T13:28:37.450Z,1.50
2018-12-09T13:31:04.836Z,1.40
2018-12-09T13:33:32.394Z,1.60
2018-12-09T13:35:59.776Z,2.03
2018-12-09T13:38:27.202Z,2.83
2018-12-09T13:40:54.601Z,1.33
2018-12-09T13:43:22.065Z,1.43
2018-12-09T13:45:49.463Z,1.77
2018-12-09T13:48:17.184Z,1.20
2018-12-09T13:50:44.713Z,1.57
2018-12-09T13:53:12.167Z,1.60
2018-12-09T13:55:39.572Z,1.57
2018-12-09T13:58:06.987Z,2.53
2018-12-09T14:00:34.380Z,2.00
2018-12-09T14:03:01.837Z,2.93
2018-12-09T14:05:29.316Z,2.30
2018-12-09T14:07:56.776Z,1.40
2018-12-09T14:10:24.195Z,2.50
2018-12-09T14:12:51.628Z,2.23
2018-12-09T14:15:19.061Z,1.83
2018-12-09T14:17:46.498Z,1.30
2018-12-09T14:20:14.010Z,1.70
2018-12-09T14:22:41.454Z,1.57
2018-12-09T14:25:08.870Z,1.30
2018-12-09T14:27:36.643Z,1.90
2018-12-09T14:30:05.420Z,2.40
2018-12-09T14:32:32.880Z,1.50
2018-12-09T14:35:00.278Z,1.60
2018-12-09T14:37:27.791Z,1.87
2018-12-09T14:39:55.253Z,1.50
2018-12-09T14:42:22.703Z,1.10
2018-12-09T14:44:51.010Z,1.90
2018-12-09T14:47:18.392Z,1.43
2018-12-09T14:49:45.845Z,1.20
2018-12-09T14:52:13.258Z,1.03
2018-12-09T14:54:40.680Z,1.00
2018-12-09T14:57:14.791Z,1.10
2018-12-09T14:59:42.230Z,1.10
2018-12-09T15:02:09.634Z,1.10
2018-12-09T15:04:37.056Z,1.10
2018-12-09T15:07:04.591Z,1.30
2018-12-09T15:09:32.137Z,1.20
2018-12-09T15:11:59.687Z,1.20
2018-12-09T15:14:27.142Z,1.17
2018-12-09T15:16:54.727Z,1.20
2018-12-09T15:19:22.176Z,1.70
2018-12-09T15:21:49.563Z,1.50
2018-12-09T15:24:17.023Z,1.30
2018-12-09T15:26:44.455Z,1.40
2018-12-09T15:29:11.902Z,1.30
2018-12-09T15:31:39.291Z,1.80
2018-12-09T15:34:06.728Z,1.60
2018-12-09T15:36:34.127Z,2.20
2018-12-09T15:39:01.564Z,2.43
2018-12-09T15:41:28.961Z,1.70
2018-12-09T15:43:56.521Z,2.30
2018-12-09T15:46:23.913Z,2.10
2018-12-09T15:48:51.357Z,1.70
2018-12-09T15:51:18.903Z,2.37
2018-12-09T15:53:46.299Z,1.80
2018-12-09T15:56:13.746Z,2.60
2018-12-09T15:58:41.140Z,2.20
2018-12-09T16:01:08.579Z,3.43
2018-12-09T16:03:35.984Z,2.27
2018-12-09T16:06:03.628Z,2.80
2018-12-09T16:08:31.032Z,1.87
2018-12-09T16:10:58.455Z,3.50
2018-12-09T16:13:25.837Z,3.40
2018-12-09T16:15:53.260Z,1.53
2018-12-09T16:18:27.392Z,1.57
2018-12-09T16:20:55.044Z,1.50
2018-12-09T16:23:22.427Z,1.97
2018-12-09T16:25:49.851Z,2.37
2018-12-09T16:28:17.241Z,1.70
2018-12-09T16:30:44.676Z,1.83
2018-12-09T16:33:12.056Z,1.30
2018-12-09T16:35:39.483Z,1.93
2018-12-09T16:38:06.869Z,1.30
2018-12-09T16:40:34.331Z,1.53
2018-12-09T16:43:01.703Z,0.90
2018-12-09T16:45:29.137Z,0.70
2018-12-09T16:47:56.521Z,1.90
2018-12-09T16:50:24.072Z,1.00
2018-12-09T16:52:51.457Z,0.90
2018-12-09T16:55:18.887Z,0.90
2018-12-09T16:57:46.262Z,0.60
2018-12-09T17:00:13.687Z,0.73
2018-12-09T17:02:41.061Z,0.53
2018-12-09T17:05:08.648Z,0.63
2018-12-09T17:07:42.079Z,1.20
2018-12-09T17:10:06.436Z,0.73
2018-12-09T17:12:33.831Z,0.70
2018-12-09T17:15:01.279Z,0.70
2018-12-09T17:17:28.692Z,0.90
2018-12-09T17:19:56.145Z,0.97
2018-12-09T17:22:23.522Z,1.30
2018-12-09T17:24:50.968Z,1.20
2018-12-09T17:27:18.356Z,1.47
2018-12-09T17:29:45.787Z,1.30
2018-12-09T17:32:13.179Z,2.47
2018-12-09T17:34:40.683Z,2.40
2018-12-09T17:37:08.071Z,2.17
2018-12-09T17:39:35.504Z,1.40
2018-12-09T17:42:03.053Z,1.40
2018-12-09T17:44:30.518Z,1.40
2018-12-09T17:46:57.980Z,9.10
2018-12-09T17:49:25.380Z,1.63
2018-12-09T17:51:52.824Z,1.97
2018-12-09T17:54:20.219Z,1.73
2018-12-09T17:56:47.652Z,1.70
2018-12-09T17:59:15.055Z,1.23
2018-12-09T18:01:42.514Z,1.40
2018-12-09T18:04:09.926Z,1.30
2018-12-09T18:06:37.433Z,1.60
2018-12-09T18:09:05.807Z,1.20
2018-12-09T18:11:33.280Z,1.40
2018-12-09T18:14:00.732Z,2.90
2018-12-09T18:16:28.225Z,2.23
2018-12-09T18:18:55.656Z,1.27
2018-12-09T18:21:23.236Z,1.43
2018-12-09T18:23:52.559Z,1.53
2018-12-09T18:28:54.487Z,1.50
2018-12-09T18:31:22.346Z,5.57
2018-12-09T18:33:49.780Z,2.00
2018-12-09T18:36:17.243Z,5.47
2018-12-09T18:38:44.668Z,6.67
2018-12-09T18:41:12.217Z,1.63
2018-12-09T18:43:39.631Z,1.30
2018-12-09T18:46:07.132Z,1.00
2018-12-09T18:48:34.539Z,0.97
2018-12-09T18:51:02.016Z,1.33
2018-12-09T18:53:29.413Z,1.23
2018-12-09T18:55:56.907Z,1.40
2018-12-09T18:58:24.333Z,1.30
2018-12-09T19:00:51.818Z,1.67
2018-12-09T19:03:19.352Z,1.70
2018-12-09T19:05:47.613Z,1.80
2018-12-09T19:08:15.360Z,1.77
2018-12-09T19:10:42.960Z,1.60
2018-12-09T19:13:10.381Z,1.67
2018-12-09T19:15:37.876Z,1.97
2018-12-09T19:18:05.301Z,2.10
2018-12-09T19:20:32.877Z,1.83
2018-12-09T19:23:00.417Z,1.60
2018-12-09T19:25:27.886Z,1.73
2018-12-09T19:27:55.324Z,1.60
2018-12-09T19:30:22.777Z,1.60
2018-12-09T19:32:50.285Z,1.60
2018-12-09T19:35:17.739Z,1.50
2018-12-09T19:37:45.152Z,1.07
2018-12-09T19:40:12.785Z,1.37
2018-12-09T19:42:40.270Z,1.00
2018-12-09T19:45:07.728Z,0.87
2018-12-09T19:47:35.300Z,1.10
2018-12-09T19:50:02.967Z,0.97
2018-12-09T19:52:30.565Z,1.07
2018-12-09T19:54:57.967Z,0.80
2018-12-09T19:57:25.424Z,1.00
2018-12-09T19:59:52.817Z,0.90
2018-12-09T20:02:20.264Z,1.00
2018-12-09T20:04:47.676Z,1.00
2018-12-09T20:07:15.523Z,0.83
2018-12-09T20:09:42.922Z,5.40
2018-12-09T20:12:10.374Z,1.20
2018-12-09T20:14:37.841Z,0.77
2018-12-09T20:17:11.956Z,1.10
2018-12-09T20:19:39.363Z,0.90
2018-12-09T20:22:07.287Z,1.00
2018-12-09T20:24:34.857Z,0.90
2018-12-09T20:27:02.329Z,0.90
2018-12-09T20:29:29.727Z,0.90
2018-12-09T20:31:57.329Z,0.93
2018-12-09T20:34:24.896Z,1.00
2018-12-09T20:36:52.462Z,0.90
2018-12-09T20:39:19.859Z,0.90
2018-12-09T20:41:47.303Z,1.20
2018-12-09T20:44:14.698Z,1.03
2018-12-09T20:46:42.134Z,1.80
2018-12-09T20:49:09.525Z,1.57
2018-12-09T20:51:37.018Z,1.70
2018-12-09T20:54:04.411Z,0.90
2018-12-09T20:56:31.868Z,0.90
2018-12-09T20:58:59.247Z,2.03
2018-12-09T21:01:26.682Z,1.10
2018-12-09T21:03:54.068Z,0.90
2018-12-09T21:06:21.564Z,1.17
2018-12-09T21:08:48.953Z,1.50
2018-12-09T21:11:16.411Z,0.90
2018-12-09T21:13:43.810Z,1.10
2018-12-09T21:16:11.362Z,0.80
2018-12-09T21:18:38.764Z,1.17
2018-12-09T21:21:08.244Z,1.00
2018-12-09T21:23:35.733Z,1.00
2018-12-09T21:26:03.300Z,1.10
2018-12-09T21:28:30.688Z,1.00
2018-12-09T21:30:58.148Z,0.93
2018-12-09T21:33:25.554Z,1.20
2018-12-09T21:35:52.971Z,1.00
2018-12-09T21:38:20.384Z,1.10
2018-12-09T21:40:47.780Z,1.17
2018-12-09T21:43:15.188Z,1.10
2018-12-09T21:45:42.567Z,1.23
2018-12-09T21:48:09.993Z,1.17
2018-12-09T21:50:37.386Z,4.03
2018-12-09T21:53:04.819Z,3.33
2018-12-09T21:55:32.212Z,1.30
2018-12-09T21:57:59.681Z,1.00
2018-12-09T22:00:27.080Z,1.00
2018-12-09T22:02:54.530Z,1.30
2018-12-09T22:05:21.921Z,1.00
2018-12-09T22:07:49.475Z,1.00
2018-12-09T22:10:16.867Z,1.13
2018-12-09T22:12:44.519Z,0.97
2018-12-09T22:15:12.020Z,0.93
2018-12-09T22:17:39.459Z,1.20
2018-12-09T22:20:07.799Z,0.80
2018-12-09T22:22:35.237Z,1.10
2018-12-09T22:25:02.751Z,1.30
2018-12-09T22:27:30.155Z,1.10
2018-12-09T22:29:57.532Z,1.27
2018-12-09T22:32:24.944Z,1.20
2018-12-09T22:34:52.316Z,1.50
2018-12-09T22:37:19.711Z,1.33
2018-12-09T22:39:47.100Z,1.30
2018-12-09T22:42:14.529Z,1.40
2018-12-09T22:44:41.912Z,1.20
2018-12-09T22:47:09.321Z,1.30
2018-12-09T22:49:36.828Z,1.00
2018-12-09T22:52:04.484Z,1.50
2018-12-09T22:54:31.852Z,1.20
2018-12-09T22:56:59.269Z,1.40
2018-12-09T22:59:26.651Z,1.17
2018-12-09T23:01:59.982Z,1.30
2018-12-09T23:04:27.504Z,1.40
2018-12-09T23:06:59.463Z,1.50
2018-12-09T23:09:26.864Z,1.40
2018-12-09T23:11:54.289Z,1.63
2018-12-09T23:14:21.671Z,1.40
2018-12-09T23:16:49.088Z,1.80
2018-12-09T23:19:16.467Z,1.43
2018-12-09T23:21:43.887Z,1.60
2018-12-09T23:24:11.277Z,1.57
2018-12-09T23:26:38.696Z,1.60
2018-12-09T23:29:06.095Z,1.80
2018-12-09T23:31:33.507Z,1.87
2018-12-09T23:34:00.887Z,2.07
2018-12-09T23:36:28.296Z,2.10
2018-12-09T23:38:55.688Z,2.43
2018-12-09T23:41:23.088Z,2.50
2018-12-09T23:43:50.492Z,2.30
2018-12-09T23:46:17.872Z,2.20
2018-12-09T23:48:45.281Z,2.30
2018-12-09T23:51:12.666Z,2.30
2018-12-09T23:53:40.059Z,2.57
2018-12-09T23:56:07.534Z,2.77
2018-12-09T23:58:34.939Z,2.97
